sensor_id;sensor_type;location;lat;lon;timestamp;P1;durP1;ratioP1;P2;durP2;ratioP2
51602;SDS011;37954;51.980;5.850;2023-05-07T00:00:21;5.30;;;3.55;;
51602;SDS011;37954;51.980;5.850;2023-05-07T00:04:34;4.65;;;4.13;;
51602;SDS011;37954;51.980;5.850;2023-05-07T00:08:49;8.15;;;4.68;;
51602;SDS011;37954;51.980;5.850;2023-05-07T00:13:00;5.25;;;4.30;;
51602;SDS011;37954;51.980;5.850;2023-05-07T00:17:12;8.07;;;4.45;;
51602;SDS011;37954;51.980;5.850;2023-05-07T00:21:24;5.35;;;4.20;;
51602;SDS011;37954;51.980;5.850;2023-05-07T00:25:37;8.38;;;4.38;;
51602;SDS011;37954;51.980;5.850;2023-05-07T00:29:49;5.93;;;4.15;;
51602;SDS011;37954;51.980;5.850;2023-05-07T00:34:01;5.45;;;4.38;;
51602;SDS011;37954;51.980;5.850;2023-05-07T00:38:12;7.30;;;4.85;;
51602;SDS011;37954;51.980;5.850;2023-05-07T00:42:24;5.35;;;4.80;;
51602;SDS011;37954;51.980;5.850;2023-05-07T00:46:35;5.47;;;4.82;;
51602;SDS011;37954;51.980;5.850;2023-05-07T00:50:48;6.95;;;5.47;;
51602;SDS011;37954;51.980;5.850;2023-05-07T00:55:01;6.28;;;4.85;;
51602;SDS011;37954;51.980;5.850;2023-05-07T00:59:17;6.22;;;4.82;;
51602;SDS011;37954;51.980;5.850;2023-05-07T01:03:29;6.47;;;5.07;;
51602;SDS011;37954;51.980;5.850;2023-05-07T01:07:41;10.02;;;5.40;;
51602;SDS011;37954;51.980;5.850;2023-05-07T01:11:54;6.55;;;5.07;;
51602;SDS011;37954;51.980;5.850;2023-05-07T01:16:08;6.03;;;5.20;;
51602;SDS011;37954;51.980;5.850;2023-05-07T01:20:21;6.28;;;5.15;;
51602;SDS011;37954;51.980;5.850;2023-05-07T01:24:36;8.77;;;5.55;;
51602;SDS011;37954;51.980;5.850;2023-05-07T01:28:51;7.95;;;4.97;;
51602;SDS011;37954;51.980;5.850;2023-05-07T01:33:07;7.05;;;6.25;;
51602;SDS011;37954;51.980;5.850;2023-05-07T01:37:22;6.95;;;5.72;;
51602;SDS011;37954;51.980;5.850;2023-05-07T01:41:34;7.50;;;6.07;;
51602;SDS011;37954;51.980;5.850;2023-05-07T01:45:47;6.38;;;5.60;;
51602;SDS011;37954;51.980;5.850;2023-05-07T01:50:00;6.88;;;6.18;;
51602;SDS011;37954;51.980;5.850;2023-05-07T01:54:12;9.25;;;6.75;;
51602;SDS011;37954;51.980;5.850;2023-05-07T01:58:23;7.10;;;6.40;;
51602;SDS011;37954;51.980;5.850;2023-05-07T02:02:35;7.07;;;6.10;;
51602;SDS011;37954;51.980;5.850;2023-05-07T02:06:47;8.00;;;6.80;;
51602;SDS011;37954;51.980;5.850;2023-05-07T02:11:00;7.13;;;6.20;;
51602;SDS011;37954;51.980;5.850;2023-05-07T02:15:13;10.90;;;7.10;;
51602;SDS011;37954;51.980;5.850;2023-05-07T02:19:25;7.88;;;6.82;;
51602;SDS011;37954;51.980;5.850;2023-05-07T02:23:37;7.85;;;6.68;;
51602;SDS011;37954;51.980;5.850;2023-05-07T02:27:48;8.45;;;6.70;;
51602;SDS011;37954;51.980;5.850;2023-05-07T02:32:01;9.15;;;6.72;;
51602;SDS011;37954;51.980;5.850;2023-05-07T02:36:12;7.93;;;7.13;;
51602;SDS011;37954;51.980;5.850;2023-05-07T02:40:30;8.07;;;6.35;;
51602;SDS011;37954;51.980;5.850;2023-05-07T02:44:44;8.63;;;6.68;;
51602;SDS011;37954;51.980;5.850;2023-05-07T02:48:56;9.15;;;7.45;;
51602;SDS011;37954;51.980;5.850;2023-05-07T02:53:08;9.88;;;7.07;;
51602;SDS011;37954;51.980;5.850;2023-05-07T02:57:20;8.20;;;7.40;;
51602;SDS011;37954;51.980;5.850;2023-05-07T03:01:32;9.27;;;6.75;;
51602;SDS011;37954;51.980;5.850;2023-05-07T03:05:49;7.40;;;6.65;;
51602;SDS011;37954;51.980;5.850;2023-05-07T03:10:01;9.80;;;6.93;;
51602;SDS011;37954;51.980;5.850;2023-05-07T03:14:12;8.38;;;6.90;;
51602;SDS011;37954;51.980;5.850;2023-05-07T03:18:24;8.60;;;7.22;;
51602;SDS011;37954;51.980;5.850;2023-05-07T03:22:36;10.55;;;6.90;;
51602;SDS011;37954;51.980;5.850;2023-05-07T03:26:48;8.77;;;6.88;;
51602;SDS011;37954;51.980;5.850;2023-05-07T03:30:59;9.20;;;6.55;;
51602;SDS011;37954;51.980;5.850;2023-05-07T03:35:11;7.15;;;6.35;;
51602;SDS011;37954;51.980;5.850;2023-05-07T03:39:24;9.00;;;7.03;;
51602;SDS011;37954;51.980;5.850;2023-05-07T03:43:36;9.27;;;7.05;;
51602;SDS011;37954;51.980;5.850;2023-05-07T03:47:52;10.45;;;7.55;;
51602;SDS011;37954;51.980;5.850;2023-05-07T03:52:05;11.93;;;7.60;;
51602;SDS011;37954;51.980;5.850;2023-05-07T03:56:17;13.55;;;7.32;;
51602;SDS011;37954;51.980;5.850;2023-05-07T04:00:30;10.23;;;7.68;;
51602;SDS011;37954;51.980;5.850;2023-05-07T04:04:45;7.45;;;6.32;;
51602;SDS011;37954;51.980;5.850;2023-05-07T04:08:57;8.73;;;7.32;;
51602;SDS011;37954;51.980;5.850;2023-05-07T04:13:09;10.82;;;7.88;;
51602;SDS011;37954;51.980;5.850;2023-05-07T04:17:21;10.32;;;7.72;;
51602;SDS011;37954;51.980;5.850;2023-05-07T04:21:34;9.48;;;8.15;;
51602;SDS011;37954;51.980;5.850;2023-05-07T04:25:46;9.45;;;7.78;;
51602;SDS011;37954;51.980;5.850;2023-05-07T04:30:06;9.10;;;7.90;;
51602;SDS011;37954;51.980;5.850;2023-05-07T04:34:22;8.80;;;7.90;;
51602;SDS011;37954;51.980;5.850;2023-05-07T04:38:34;11.80;;;8.65;;
51602;SDS011;37954;51.980;5.850;2023-05-07T04:42:47;10.45;;;8.23;;
51602;SDS011;37954;51.980;5.850;2023-05-07T04:46:59;10.90;;;9.02;;
51602;SDS011;37954;51.980;5.850;2023-05-07T04:51:11;9.98;;;8.77;;
51602;SDS011;37954;51.980;5.850;2023-05-07T04:55:23;9.82;;;8.82;;
51602;SDS011;37954;51.980;5.850;2023-05-07T04:59:35;10.30;;;9.18;;
51602;SDS011;37954;51.980;5.850;2023-05-07T05:03:47;12.38;;;9.43;;
51602;SDS011;37954;51.980;5.850;2023-05-07T05:07:59;10.60;;;9.43;;
51602;SDS011;37954;51.980;5.850;2023-05-07T05:12:11;11.65;;;9.23;;
51602;SDS011;37954;51.980;5.850;2023-05-07T05:16:23;10.07;;;8.95;;
51602;SDS011;37954;51.980;5.850;2023-05-07T05:20:35;11.27;;;9.43;;
51602;SDS011;37954;51.980;5.850;2023-05-07T05:24:47;13.23;;;9.25;;
51602;SDS011;37954;51.980;5.850;2023-05-07T05:28:59;9.80;;;8.50;;
51602;SDS011;37954;51.980;5.850;2023-05-07T05:33:13;9.68;;;7.95;;
51602;SDS011;37954;51.980;5.850;2023-05-07T05:37:25;11.07;;;9.65;;
51602;SDS011;37954;51.980;5.850;2023-05-07T05:41:37;10.35;;;9.07;;
51602;SDS011;37954;51.980;5.850;2023-05-07T05:45:49;11.52;;;8.77;;
51602;SDS011;37954;51.980;5.850;2023-05-07T05:50:01;11.45;;;9.20;;
51602;SDS011;37954;51.980;5.850;2023-05-07T05:54:12;13.95;;;9.23;;
51602;SDS011;37954;51.980;5.850;2023-05-07T05:58:25;11.13;;;9.15;;
51602;SDS011;37954;51.980;5.850;2023-05-07T06:02:43;11.00;;;8.63;;
51602;SDS011;37954;51.980;5.850;2023-05-07T06:06:57;10.18;;;9.15;;
51602;SDS011;37954;51.980;5.850;2023-05-07T06:11:10;9.32;;;8.38;;
51602;SDS011;37954;51.980;5.850;2023-05-07T06:15:24;10.65;;;9.48;;
51602;SDS011;37954;51.980;5.850;2023-05-07T06:19:36;10.82;;;8.73;;
51602;SDS011;37954;51.980;5.850;2023-05-07T06:23:48;12.38;;;8.98;;
51602;SDS011;37954;51.980;5.850;2023-05-07T06:28:02;10.40;;;8.55;;
51602;SDS011;37954;51.980;5.850;2023-05-07T06:32:15;9.23;;;8.20;;
51602;SDS011;37954;51.980;5.850;2023-05-07T06:36:29;8.40;;;7.60;;
51602;SDS011;37954;51.980;5.850;2023-05-07T06:40:43;8.88;;;7.97;;
51602;SDS011;37954;51.980;5.850;2023-05-07T06:44:55;8.52;;;7.53;;
51602;SDS011;37954;51.980;5.850;2023-05-07T06:49:07;9.90;;;8.32;;
51602;SDS011;37954;51.980;5.850;2023-05-07T06:53:19;10.02;;;8.55;;
51602;SDS011;37954;51.980;5.850;2023-05-07T06:57:31;11.02;;;8.80;;
51602;SDS011;37954;51.980;5.850;2023-05-07T07:01:43;9.25;;;8.02;;
51602;SDS011;37954;51.980;5.850;2023-05-07T07:05:59;10.80;;;8.57;;
51602;SDS011;37954;51.980;5.850;2023-05-07T07:10:14;10.57;;;8.50;;
51602;SDS011;37954;51.980;5.850;2023-05-07T07:14:28;9.48;;;8.55;;
51602;SDS011;37954;51.980;5.850;2023-05-07T07:18:48;10.98;;;9.63;;
51602;SDS011;37954;51.980;5.850;2023-05-07T07:23:04;10.10;;;9.05;;
51602;SDS011;37954;51.980;5.850;2023-05-07T07:27:18;13.63;;;9.90;;
51602;SDS011;37954;51.980;5.850;2023-05-07T07:31:30;11.25;;;9.48;;
51602;SDS011;37954;51.980;5.850;2023-05-07T07:35:42;11.70;;;9.40;;
51602;SDS011;37954;51.980;5.850;2023-05-07T07:39:54;13.95;;;9.68;;
51602;SDS011;37954;51.980;5.850;2023-05-07T07:44:06;10.02;;;8.77;;
51602;SDS011;37954;51.980;5.850;2023-05-07T07:48:30;9.82;;;8.82;;
51602;SDS011;37954;51.980;5.850;2023-05-07T07:52:43;12.30;;;9.45;;
51602;SDS011;37954;51.980;5.850;2023-05-07T07:56:59;11.70;;;9.38;;
51602;SDS011;37954;51.980;5.850;2023-05-07T08:01:11;12.18;;;9.70;;
51602;SDS011;37954;51.980;5.850;2023-05-07T08:05:26;18.00;;;9.63;;
51602;SDS011;37954;51.980;5.850;2023-05-07T08:09:39;12.25;;;9.35;;
51602;SDS011;37954;51.980;5.850;2023-05-07T08:13:53;14.27;;;9.63;;
51602;SDS011;37954;51.980;5.850;2023-05-07T08:18:05;11.85;;;9.52;;
51602;SDS011;37954;51.980;5.850;2023-05-07T08:22:18;11.38;;;8.90;;
51602;SDS011;37954;51.980;5.850;2023-05-07T08:26:30;16.90;;;9.38;;
51602;SDS011;37954;51.980;5.850;2023-05-07T08:30:41;11.50;;;9.35;;
51602;SDS011;37954;51.980;5.850;2023-05-07T08:34:54;13.98;;;9.20;;
51602;SDS011;37954;51.980;5.850;2023-05-07T08:39:06;10.02;;;8.23;;
51602;SDS011;37954;51.980;5.850;2023-05-07T08:43:19;12.27;;;8.60;;
51602;SDS011;37954;51.980;5.850;2023-05-07T08:47:34;11.95;;;8.68;;
51602;SDS011;37954;51.980;5.850;2023-05-07T08:51:50;9.52;;;7.68;;
51602;SDS011;37954;51.980;5.850;2023-05-07T08:56:03;9.48;;;7.15;;
51602;SDS011;37954;51.980;5.850;2023-05-07T09:00:16;10.45;;;8.48;;
51602;SDS011;37954;51.980;5.850;2023-05-07T09:04:32;9.63;;;8.07;;
51602;SDS011;37954;51.980;5.850;2023-05-07T09:13:27;10.05;;;7.72;;
51602;SDS011;37954;51.980;5.850;2023-05-07T09:17:39;13.45;;;7.80;;
51602;SDS011;37954;51.980;5.850;2023-05-07T09:22:03;10.43;;;7.88;;
51602;SDS011;37954;51.980;5.850;2023-05-07T09:26:26;11.00;;;7.63;;
51602;SDS011;37954;51.980;5.850;2023-05-07T09:30:39;10.48;;;7.25;;
51602;SDS011;37954;51.980;5.850;2023-05-07T09:34:54;9.45;;;6.85;;
51602;SDS011;37954;51.980;5.850;2023-05-07T09:39:09;7.38;;;6.35;;
51602;SDS011;37954;51.980;5.850;2023-05-07T09:43:21;9.77;;;6.80;;
51602;SDS011;37954;51.980;5.850;2023-05-07T09:47:39;10.43;;;6.43;;
51602;SDS011;37954;51.980;5.850;2023-05-07T09:51:56;9.00;;;6.38;;
51602;SDS011;37954;51.980;5.850;2023-05-07T09:56:13;10.18;;;6.70;;
51602;SDS011;37954;51.980;5.850;2023-05-07T10:00:27;11.23;;;6.95;;
51602;SDS011;37954;51.980;5.850;2023-05-07T10:04:48;10.20;;;7.47;;
51602;SDS011;37954;51.980;5.850;2023-05-07T10:09:04;8.77;;;6.63;;
51602;SDS011;37954;51.980;5.850;2023-05-07T10:13:18;8.48;;;6.68;;
51602;SDS011;37954;51.980;5.850;2023-05-07T10:17:37;8.02;;;6.25;;
51602;SDS011;37954;51.980;5.850;2023-05-07T10:21:53;10.25;;;6.80;;
51602;SDS011;37954;51.980;5.850;2023-05-07T10:26:10;9.98;;;6.45;;
51602;SDS011;37954;51.980;5.850;2023-05-07T10:35:02;7.72;;;6.82;;
51602;SDS011;37954;51.980;5.850;2023-05-07T10:39:19;6.55;;;5.82;;
51602;SDS011;37954;51.980;5.850;2023-05-07T10:43:41;9.57;;;6.20;;
51602;SDS011;37954;51.980;5.850;2023-05-07T10:48:05;11.25;;;6.28;;
51602;SDS011;37954;51.980;5.850;2023-05-07T10:52:42;5.93;;;5.32;;
51602;SDS011;37954;51.980;5.850;2023-05-07T10:56:58;8.77;;;5.90;;
51602;SDS011;37954;51.980;5.850;2023-05-07T11:06:16;6.95;;;5.70;;
51602;SDS011;37954;51.980;5.850;2023-05-07T11:10:55;6.75;;;6.05;;
51602;SDS011;37954;51.980;5.850;2023-05-07T11:15:33;6.65;;;5.95;;
51602;SDS011;37954;51.980;5.850;2023-05-07T11:20:10;8.77;;;5.97;;
51602;SDS011;37954;51.980;5.850;2023-05-07T11:24:28;8.50;;;6.32;;
51602;SDS011;37954;51.980;5.850;2023-05-07T11:28:49;8.52;;;6.60;;
51602;SDS011;37954;51.980;5.850;2023-05-07T11:33:02;6.70;;;5.63;;
51602;SDS011;37954;51.980;5.850;2023-05-07T11:37:17;7.35;;;6.57;;
51602;SDS011;37954;51.980;5.850;2023-05-07T11:41:35;6.85;;;5.60;;
51602;SDS011;37954;51.980;5.850;2023-05-07T11:45:48;7.32;;;5.85;;
51602;SDS011;37954;51.980;5.850;2023-05-07T11:50:04;9.57;;;6.82;;
51602;SDS011;37954;51.980;5.850;2023-05-07T11:54:22;8.88;;;6.40;;
51602;SDS011;37954;51.980;5.850;2023-05-07T11:58:34;7.53;;;6.28;;
51602;SDS011;37954;51.980;5.850;2023-05-07T12:02:46;9.98;;;6.78;;
51602;SDS011;37954;51.980;5.850;2023-05-07T12:06:58;12.32;;;6.28;;
51602;SDS011;37954;51.980;5.850;2023-05-07T12:11:14;6.70;;;5.93;;
51602;SDS011;37954;51.980;5.850;2023-05-07T12:15:28;7.57;;;5.95;;
51602;SDS011;37954;51.980;5.850;2023-05-07T12:19:41;6.53;;;5.78;;
51602;SDS011;37954;51.980;5.850;2023-05-07T12:23:54;6.32;;;5.53;;
51602;SDS011;37954;51.980;5.850;2023-05-07T12:28:07;6.22;;;5.55;;
51602;SDS011;37954;51.980;5.850;2023-05-07T12:32:20;6.45;;;5.63;;
51602;SDS011;37954;51.980;5.850;2023-05-07T12:36:39;7.30;;;5.70;;
51602;SDS011;37954;51.980;5.850;2023-05-07T12:40:53;7.20;;;6.25;;
51602;SDS011;37954;51.980;5.850;2023-05-07T12:45:12;6.95;;;6.07;;
51602;SDS011;37954;51.980;5.850;2023-05-07T12:49:28;7.05;;;5.93;;
51602;SDS011;37954;51.980;5.850;2023-05-07T12:53:40;7.43;;;5.85;;
51602;SDS011;37954;51.980;5.850;2023-05-07T12:57:55;7.25;;;5.95;;
51602;SDS011;37954;51.980;5.850;2023-05-07T13:02:08;6.25;;;5.63;;
51602;SDS011;37954;51.980;5.850;2023-05-07T13:06:22;6.20;;;5.60;;
51602;SDS011;37954;51.980;5.850;2023-05-07T13:10:34;7.25;;;5.43;;
51602;SDS011;37954;51.980;5.850;2023-05-07T13:14:46;7.22;;;5.57;;
51602;SDS011;37954;51.980;5.850;2023-05-07T13:18:57;6.95;;;5.00;;
51602;SDS011;37954;51.980;5.850;2023-05-07T13:23:09;5.75;;;5.25;;
51602;SDS011;37954;51.980;5.850;2023-05-07T13:27:21;7.97;;;5.47;;
51602;SDS011;37954;51.980;5.850;2023-05-07T13:31:32;6.13;;;4.82;;
51602;SDS011;37954;51.980;5.850;2023-05-07T13:35:45;6.80;;;5.22;;
51602;SDS011;37954;51.980;5.850;2023-05-07T13:39:56;5.03;;;4.57;;
51602;SDS011;37954;51.980;5.850;2023-05-07T13:44:08;5.25;;;4.75;;
51602;SDS011;37954;51.980;5.850;2023-05-07T13:48:20;7.32;;;4.65;;
51602;SDS011;37954;51.980;5.850;2023-05-07T13:52:32;4.82;;;4.35;;
51602;SDS011;37954;51.980;5.850;2023-05-07T13:56:43;5.43;;;4.90;;
51602;SDS011;37954;51.980;5.850;2023-05-07T14:00:55;5.47;;;4.60;;
51602;SDS011;37954;51.980;5.850;2023-05-07T14:05:07;8.05;;;5.30;;
51602;SDS011;37954;51.980;5.850;2023-05-07T14:09:20;7.75;;;4.80;;
51602;SDS011;37954;51.980;5.850;2023-05-07T14:13:32;6.20;;;4.93;;
51602;SDS011;37954;51.980;5.850;2023-05-07T14:17:45;6.93;;;5.00;;
51602;SDS011;37954;51.980;5.850;2023-05-07T14:21:58;5.47;;;4.55;;
51602;SDS011;37954;51.980;5.850;2023-05-07T14:26:09;5.25;;;4.55;;
51602;SDS011;37954;51.980;5.850;2023-05-07T14:30:21;4.40;;;4.00;;
51602;SDS011;37954;51.980;5.850;2023-05-07T14:34:35;5.95;;;4.55;;
51602;SDS011;37954;51.980;5.850;2023-05-07T14:38:47;5.28;;;4.78;;
51602;SDS011;37954;51.980;5.850;2023-05-07T14:47:39;4.80;;;4.25;;
51602;SDS011;37954;51.980;5.850;2023-05-07T14:51:51;5.95;;;4.30;;
51602;SDS011;37954;51.980;5.850;2023-05-07T14:56:03;5.78;;;4.80;;
51602;SDS011;37954;51.980;5.850;2023-05-07T15:00:16;5.65;;;4.60;;
51602;SDS011;37954;51.980;5.850;2023-05-07T15:04:28;6.63;;;5.40;;
51602;SDS011;37954;51.980;5.850;2023-05-07T15:08:40;5.85;;;4.80;;
51602;SDS011;37954;51.980;5.850;2023-05-07T15:12:51;5.68;;;4.60;;
51602;SDS011;37954;51.980;5.850;2023-05-07T15:17:03;5.45;;;4.43;;
51602;SDS011;37954;51.980;5.850;2023-05-07T15:21:15;6.22;;;3.30;;
51602;SDS011;37954;51.980;5.850;2023-05-07T15:25:28;3.35;;;3.05;;
51602;SDS011;37954;51.980;5.850;2023-05-07T15:29:39;4.88;;;1.75;;
51602;SDS011;37954;51.980;5.850;2023-05-07T15:33:51;1.70;;;1.40;;
51602;SDS011;37954;51.980;5.850;2023-05-07T15:38:03;1.92;;;1.58;;
51602;SDS011;37954;51.980;5.850;2023-05-07T15:42:16;1.30;;;1.20;;
51602;SDS011;37954;51.980;5.850;2023-05-07T15:46:28;1.70;;;1.60;;
51602;SDS011;37954;51.980;5.850;2023-05-07T15:50:40;4.10;;;2.20;;
51602;SDS011;37954;51.980;5.850;2023-05-07T15:54:53;5.70;;;1.98;;
51602;SDS011;37954;51.980;5.850;2023-05-07T15:59:06;2.97;;;2.30;;
51602;SDS011;37954;51.980;5.850;2023-05-07T16:03:18;8.00;;;2.95;;
51602;SDS011;37954;51.980;5.850;2023-05-07T16:07:29;3.70;;;2.95;;
51602;SDS011;37954;51.980;5.850;2023-05-07T16:11:41;4.57;;;3.30;;
51602;SDS011;37954;51.980;5.850;2023-05-07T16:15:56;4.75;;;3.65;;
51602;SDS011;37954;51.980;5.850;2023-05-07T16:20:09;5.00;;;3.58;;
51602;SDS011;37954;51.980;5.850;2023-05-07T16:24:23;3.13;;;2.78;;
51602;SDS011;37954;51.980;5.850;2023-05-07T16:28:35;2.67;;;2.17;;
51602;SDS011;37954;51.980;5.850;2023-05-07T16:32:47;2.53;;;2.33;;
51602;SDS011;37954;51.980;5.850;2023-05-07T16:36:59;2.35;;;2.15;;
51602;SDS011;37954;51.980;5.850;2023-05-07T16:41:11;2.80;;;2.47;;
51602;SDS011;37954;51.980;5.850;2023-05-07T16:45:23;2.83;;;2.50;;
51602;SDS011;37954;51.980;5.850;2023-05-07T16:49:35;8.75;;;3.00;;
51602;SDS011;37954;51.980;5.850;2023-05-07T16:53:47;3.22;;;2.90;;
51602;SDS011;37954;51.980;5.850;2023-05-07T16:57:59;4.97;;;3.35;;
51602;SDS011;37954;51.980;5.850;2023-05-07T17:02:11;3.92;;;3.55;;
51602;SDS011;37954;51.980;5.850;2023-05-07T17:06:25;3.38;;;2.88;;
51602;SDS011;37954;51.980;5.850;2023-05-07T17:10:37;3.67;;;3.38;;
51602;SDS011;37954;51.980;5.850;2023-05-07T17:14:49;6.03;;;3.28;;
51602;SDS011;37954;51.980;5.850;2023-05-07T17:19:01;3.53;;;3.15;;
51602;SDS011;37954;51.980;5.850;2023-05-07T17:23:12;3.20;;;2.78;;
51602;SDS011;37954;51.980;5.850;2023-05-07T17:27:24;3.28;;;2.97;;
51602;SDS011;37954;51.980;5.850;2023-05-07T17:31:35;2.85;;;2.58;;
51602;SDS011;37954;51.980;5.850;2023-05-07T17:35:47;2.65;;;2.45;;
51602;SDS011;37954;51.980;5.850;2023-05-07T17:40:00;2.22;;;2.03;;
51602;SDS011;37954;51.980;5.850;2023-05-07T17:44:11;2.80;;;2.60;;
51602;SDS011;37954;51.980;5.850;2023-05-07T17:48:23;2.78;;;2.38;;
51602;SDS011;37954;51.980;5.850;2023-05-07T17:52:35;3.38;;;2.90;;
51602;SDS011;37954;51.980;5.850;2023-05-07T17:56:47;3.20;;;2.70;;
51602;SDS011;37954;51.980;5.850;2023-05-07T18:00:59;2.75;;;2.55;;
51602;SDS011;37954;51.980;5.850;2023-05-07T18:05:10;3.00;;;2.80;;
51602;SDS011;37954;51.980;5.850;2023-05-07T18:09:22;2.65;;;2.45;;
51602;SDS011;37954;51.980;5.850;2023-05-07T18:13:34;3.10;;;2.40;;
51602;SDS011;37954;51.980;5.850;2023-05-07T18:17:45;2.53;;;2.33;;
51602;SDS011;37954;51.980;5.850;2023-05-07T18:21:57;2.88;;;2.63;;
51602;SDS011;37954;51.980;5.850;2023-05-07T18:26:09;9.20;;;2.70;;
51602;SDS011;37954;51.980;5.850;2023-05-07T18:30:21;3.67;;;2.78;;
51602;SDS011;37954;51.980;5.850;2023-05-07T18:34:33;3.55;;;2.40;;
51602;SDS011;37954;51.980;5.850;2023-05-07T18:43:21;2.80;;;2.42;;
51602;SDS011;37954;51.980;5.850;2023-05-07T18:47:32;3.00;;;2.42;;
51602;SDS011;37954;51.980;5.850;2023-05-07T18:51:44;4.15;;;3.20;;
51602;SDS011;37954;51.980;5.850;2023-05-07T18:55:56;4.03;;;3.15;;
51602;SDS011;37954;51.980;5.850;2023-05-07T19:00:07;5.05;;;3.10;;
51602;SDS011;37954;51.980;5.850;2023-05-07T19:04:19;3.38;;;2.78;;
51602;SDS011;37954;51.980;5.850;2023-05-07T19:08:31;3.88;;;3.03;;
51602;SDS011;37954;51.980;5.850;2023-05-07T19:12:43;3.83;;;3.30;;
51602;SDS011;37954;51.980;5.850;2023-05-07T19:16:55;3.40;;;3.10;;
51602;SDS011;37954;51.980;5.850;2023-05-07T19:21:06;3.47;;;2.95;;
51602;SDS011;37954;51.980;5.850;2023-05-07T19:25:18;6.00;;;3.00;;
51602;SDS011;37954;51.980;5.850;2023-05-07T19:29:30;4.00;;;3.20;;
51602;SDS011;37954;51.980;5.850;2023-05-07T19:33:41;5.15;;;3.38;;
51602;SDS011;37954;51.980;5.850;2023-05-07T19:37:53;4.78;;;3.50;;
51602;SDS011;37954;51.980;5.850;2023-05-07T19:42:05;3.20;;;2.88;;
51602;SDS011;37954;51.980;5.850;2023-05-07T19:46:16;3.38;;;3.00;;
51602;SDS011;37954;51.980;5.850;2023-05-07T19:50:28;4.15;;;3.35;;
51602;SDS011;37954;51.980;5.850;2023-05-07T19:54:39;5.93;;;3.67;;
51602;SDS011;37954;51.980;5.850;2023-05-07T19:58:51;5.20;;;4.00;;
51602;SDS011;37954;51.980;5.850;2023-05-07T20:03:03;4.85;;;4.35;;
51602;SDS011;37954;51.980;5.850;2023-05-07T20:07:14;4.68;;;3.72;;
51602;SDS011;37954;51.980;5.850;2023-05-07T20:11:26;4.97;;;3.50;;
51602;SDS011;37954;51.980;5.850;2023-05-07T20:15:38;3.97;;;3.50;;
51602;SDS011;37954;51.980;5.850;2023-05-07T20:19:50;5.78;;;3.83;;
51602;SDS011;37954;51.980;5.850;2023-05-07T20:24:02;5.43;;;4.05;;
51602;SDS011;37954;51.980;5.850;2023-05-07T20:28:13;5.40;;;4.40;;
51602;SDS011;37954;51.980;5.850;2023-05-07T20:32:25;4.47;;;4.00;;
51602;SDS011;37954;51.980;5.850;2023-05-07T20:36:36;4.38;;;3.90;;
51602;SDS011;37954;51.980;5.850;2023-05-07T20:45:25;6.05;;;3.85;;
51602;SDS011;37954;51.980;5.850;2023-05-07T20:49:37;4.50;;;4.00;;
51602;SDS011;37954;51.980;5.850;2023-05-07T20:53:48;4.43;;;3.65;;
51602;SDS011;37954;51.980;5.850;2023-05-07T20:58:00;4.57;;;4.18;;
51602;SDS011;37954;51.980;5.850;2023-05-07T21:02:11;6.00;;;4.50;;
51602;SDS011;37954;51.980;5.850;2023-05-07T21:06:23;4.15;;;3.38;;
51602;SDS011;37954;51.980;5.850;2023-05-07T21:10:34;5.65;;;3.65;;
51602;SDS011;37954;51.980;5.850;2023-05-07T21:14:46;5.72;;;4.20;;
51602;SDS011;37954;51.980;5.850;2023-05-07T21:18:58;5.80;;;4.18;;
51602;SDS011;37954;51.980;5.850;2023-05-07T21:23:10;6.22;;;4.60;;
51602;SDS011;37954;51.980;5.850;2023-05-07T21:27:22;7.22;;;4.10;;
51602;SDS011;37954;51.980;5.850;2023-05-07T21:31:33;4.53;;;4.13;;
51602;SDS011;37954;51.980;5.850;2023-05-07T21:35:45;6.13;;;4.07;;
51602;SDS011;37954;51.980;5.850;2023-05-07T21:39:56;4.50;;;4.10;;
51602;SDS011;37954;51.980;5.850;2023-05-07T21:44:08;4.65;;;4.15;;
51602;SDS011;37954;51.980;5.850;2023-05-07T21:48:21;5.03;;;4.35;;
51602;SDS011;37954;51.980;5.850;2023-05-07T21:52:32;5.85;;;4.85;;
51602;SDS011;37954;51.980;5.850;2023-05-07T21:56:44;5.18;;;4.68;;
51602;SDS011;37954;51.980;5.850;2023-05-07T22:00:58;5.90;;;4.75;;
51602;SDS011;37954;51.980;5.850;2023-05-07T22:05:11;6.65;;;5.10;;
51602;SDS011;37954;51.980;5.850;2023-05-07T22:09:22;5.90;;;5.03;;
51602;SDS011;37954;51.980;5.850;2023-05-07T22:13:34;15.90;;;5.85;;
51602;SDS011;37954;51.980;5.850;2023-05-07T22:17:46;6.70;;;5.10;;
51602;SDS011;37954;51.980;5.850;2023-05-07T22:26:34;11.75;;;5.45;;
51602;SDS011;37954;51.980;5.850;2023-05-07T22:30:46;6.15;;;5.28;;
51602;SDS011;37954;51.980;5.850;2023-05-07T22:34:57;6.80;;;6.00;;
51602;SDS011;37954;51.980;5.850;2023-05-07T22:39:09;8.85;;;5.82;;
51602;SDS011;37954;51.980;5.850;2023-05-07T22:43:21;7.85;;;5.65;;
51602;SDS011;37954;51.980;5.850;2023-05-07T22:47:33;7.93;;;6.85;;
51602;SDS011;37954;51.980;5.850;2023-05-07T22:51:44;7.13;;;6.43;;
51602;SDS011;37954;51.980;5.850;2023-05-07T22:55:56;8.85;;;7.00;;
51602;SDS011;37954;51.980;5.850;2023-05-07T23:00:08;7.80;;;6.72;;
51602;SDS011;37954;51.980;5.850;2023-05-07T23:04:21;9.77;;;6.93;;
51602;SDS011;37954;51.980;5.850;2023-05-07T23:08:32;11.65;;;7.30;;
51602;SDS011;37954;51.980;5.850;2023-05-07T23:12:44;9.82;;;7.55;;
51602;SDS011;37954;51.980;5.850;2023-05-07T23:16:59;9.65;;;7.63;;
51602;SDS011;37954;51.980;5.850;2023-05-07T23:21:11;8.52;;;7.63;;
51602;SDS011;37954;51.980;5.850;2023-05-07T23:25:22;11.32;;;7.47;;
51602;SDS011;37954;51.980;5.850;2023-05-07T23:29:34;10.82;;;8.82;;
51602;SDS011;37954;51.980;5.850;2023-05-07T23:33:46;9.07;;;7.97;;
51602;SDS011;37954;51.980;5.850;2023-05-07T23:37:57;10.70;;;8.52;;
51602;SDS011;37954;51.980;5.850;2023-05-07T23:42:09;10.85;;;8.65;;
51602;SDS011;37954;51.980;5.850;2023-05-07T23:46:20;9.48;;;8.27;;
51602;SDS011;37954;51.980;5.850;2023-05-07T23:50:32;9.63;;;7.75;;
51602;SDS011;37954;51.980;5.850;2023-05-07T23:54:44;9.00;;;8.10;;
51602;SDS011;37954;51.980;5.850;2023-05-07T23:58:55;14.00;;;9.40;;
